Time;durP1;ratioP1;P1;durP2;ratioP2;P2;SDS_P1;SDS_P2;PMS_P1;PMS_P2;Temp;Humidity;BMP_temperature;BMP_pressure;BME280_temperature;BME280_humidity;BME280_pressure;Samples;Min_cycle;Max_cycle;Signal;HPM_P1;HPM_P2
2022/12/04 00:01:40;;;;;;;70.63;26.35;;;;;;;;;;5117992;28;20070;-76
2022/12/04 00:04:05;;;;;;;70.85;24.77;;;;;;;;;;5118105;28;20026;-78
2022/12/04 00:06:32;;;;;;;66.82;24.13;;;;;;;;;;5099912;28;20028;-77
2022/12/04 00:08:58;;;;;;;67.50;24.95;;;;;;;;;;5117903;28;20082;-78
2022/12/04 00:11:25;;;;;;;69.63;25.02;;;;;;;;;;5082934;28;20051;-78
2022/12/04 00:13:51;;;;;;;66.47;23.30;;;;;;;;;;5117866;28;20489;-78
2022/12/04 00:16:18;;;;;;;70.55;23.40;;;;;;;;;;5117824;28;20076;-76
2022/12/04 00:18:43;;;;;;;47.22;16.58;;;;;;;;;;5100132;28;20043;-78
2022/12/04 00:21:10;;;;;;;65.43;23.75;;;;;;;;;;5117425;28;20040;-78
2022/12/04 00:23:36;;;;;;;68.03;25.08;;;;;;;;;;5082857;28;20188;-78
2022/12/04 00:26:03;;;;;;;58.35;22.27;;;;;;;;;;5117644;28;20060;-77
2022/12/04 00:28:28;;;;;;;61.35;22.63;;;;;;;;;;5099617;28;20114;-78
2022/12/04 00:30:54;;;;;;;72.75;24.60;;;;;;;;;;5117650;28;20114;-77
2022/12/04 00:33:20;;;;;;;65.28;20.80;;;;;;;;;;5117467;28;20433;-78
2022/12/04 00:35:45;;;;;;;69.57;23.65;;;;;;;;;;5117440;28;20063;-78
2022/12/04 00:38:11;;;;;;;58.90;20.27;;;;;;;;;;5117576;28;20027;-80
2022/12/04 00:40:36;;;;;;;47.22;16.92;;;;;;;;;;5117397;28;20028;-78
2022/12/04 00:43:01;;;;;;;52.13;20.23;;;;;;;;;;5117568;28;20024;-78
2022/12/04 00:45:27;;;;;;;65.57;22.08;;;;;;;;;;5117380;28;20119;-78
2022/12/04 00:47:52;;;;;;;67.03;22.80;;;;;;;;;;5117368;28;20028;-77
2022/12/04 00:50:18;;;;;;;62.30;22.48;;;;;;;;;;5098799;28;20031;-77
2022/12/04 00:52:43;;;;;;;62.50;22.42;;;;;;;;;;5116967;28;20062;-78
2022/12/04 00:55:09;;;;;;;64.20;22.10;;;;;;;;;;5117140;28;20028;-78
2022/12/04 00:57:34;;;;;;;66.70;23.15;;;;;;;;;;5098970;28;20064;-77
2022/12/04 01:00:00;;;;;;;60.47;21.42;;;;;;;;;;5116856;28;20034;-78
2022/12/04 01:02:25;;;;;;;60.20;21.60;;;;;;;;;;5117116;28;20028;-78
2022/12/04 01:04:51;;;;;;;58.92;21.08;;;;;;;;;;5116699;28;20019;-78
2022/12/04 01:07:16;;;;;;;62.60;22.50;;;;;;;;;;5116894;28;20026;-78
2022/12/04 01:09:42;;;;;;;67.80;21.30;;;;;;;;;;5098915;28;20031;-77
2022/12/04 01:12:07;;;;;;;58.53;21.33;;;;;;;;;;5116877;28;20020;-78
2022/12/04 01:14:33;;;;;;;62.70;21.30;;;;;;;;;;5116324;28;20421;-77
2022/12/04 01:16:58;;;;;;;58.10;18.77;;;;;;;;;;5098367;28;20377;-78
2022/12/04 01:19:23;;;;;;;50.13;19.25;;;;;;;;;;5116280;28;20020;-78
2022/12/04 01:21:49;;;;;;;43.10;15.32;;;;;;;;;;5098407;28;20043;-77
2022/12/04 01:24:16;;;;;;;37.10;14.20;;;;;;;;;;5098307;28;20059;-78
2022/12/04 01:26:41;;;;;;;44.53;16.83;;;;;;;;;;5098487;28;20030;-78
2022/12/04 01:29:06;;;;;;;43.25;13.30;;;;;;;;;;5116640;28;20023;-77
2022/12/04 01:31:32;;;;;;;29.95;10.95;;;;;;;;;;5098244;28;20027;-78
2022/12/04 01:33:57;;;;;;;33.03;12.35;;;;;;;;;;5080877;28;20031;-79
2022/12/04 01:36:24;;;;;;;31.52;11.88;;;;;;;;;;5098222;28;20023;-77
2022/12/04 01:38:50;;;;;;;27.27;9.68;;;;;;;;;;5098428;28;20081;-78
2022/12/04 01:41:17;;;;;;;37.28;13.65;;;;;;;;;;5098424;28;20028;-78
2022/12/04 01:43:44;;;;;;;42.90;15.50;;;;;;;;;;5081401;28;20118;-78
2022/12/04 01:46:09;;;;;;;33.03;11.60;;;;;;;;;;5081275;28;20440;-78
2022/12/04 01:48:47;;;;;;;32.65;12.90;;;;;;;;;;5116041;28;20020;-77
2022/12/04 01:51:19;;;;;;;41.85;14.27;;;;;;;;;;5099601;28;20378;-77
2022/12/04 01:53:57;;;;;;;37.97;13.40;;;;;;;;;;5081224;28;20045;-77
2022/12/04 01:56:25;;;;;;;41.85;13.52;;;;;;;;;;5097957;28;20027;-78
2022/12/04 01:58:52;;;;;;;31.15;12.98;;;;;;;;;;5081596;28;20027;-80
2022/12/04 02:01:17;;;;;;;36.15;14.07;;;;;;;;;;5097662;28;20061;-77
2022/12/04 02:03:43;;;;;;;38.25;14.02;;;;;;;;;;5097480;28;20081;-78
2022/12/04 02:06:08;;;;;;;46.40;14.70;;;;;;;;;;5097662;28;20028;-78
2022/12/04 02:08:34;;;;;;;44.42;15.27;;;;;;;;;;5115957;28;20311;-78
2022/12/04 02:11:11;;;;;;;45.90;14.68;;;;;;;;;;5096994;28;20030;-78
2022/12/04 02:14:06;;;;;;;37.80;13.85;;;;;;;;;;5097563;28;20434;-77
2022/12/04 02:16:31;;;;;;;51.45;17.15;;;;;;;;;;5096301;28;20051;-78
2022/12/04 02:19:40;;;;;;;44.13;14.80;;;;;;;;;;5115717;28;20029;-78
2022/12/04 02:22:32;;;;;;;42.20;14.95;;;;;;;;;;5070901;28;20085;-78
2022/12/04 02:24:58;;;;;;;56.75;18.98;;;;;;;;;;5079271;28;20043;-77
2022/12/04 02:27:39;;;;;;;60.80;19.15;;;;;;;;;;5116606;28;20029;-78
2022/12/04 02:30:05;;;;;;;;;;;;;;;;;;5116445;28;20176;-78
2022/12/04 02:32:45;;;;;;;44.08;13.35;;;;;;;;;;5096827;28;19976;-78
2022/12/04 02:35:22;;;;;;;47.50;15.95;;;;;;;;;;5096992;28;20027;-80
2022/12/04 02:38:20;;;;;;;50.85;16.85;;;;;;;;;;5097295;28;20110;-78
2022/12/04 02:40:53;;;;;;;35.85;11.27;;;;;;;;;;5077196;28;20207;-78
2022/12/04 02:43:49;;;;;;;64.35;19.75;;;;;;;;;;5080182;28;20032;-78
2022/12/04 02:46:23;;;;;;;53.05;16.40;;;;;;;;;;5075772;28;20031;-78
2022/12/04 02:48:49;;;;;;;74.03;22.55;;;;;;;;;;5115319;28;20027;-78
2022/12/04 02:51:15;;;;;;;61.35;18.48;;;;;;;;;;5096918;28;20055;-78
2022/12/04 02:53:42;;;;;;;59.42;17.80;;;;;;;;;;5079947;28;20050;-79
2022/12/04 02:56:13;;;;;;;84.68;25.65;;;;;;;;;;5096651;28;20016;-78
2022/12/04 02:58:45;;;;;;;63.20;20.02;;;;;;;;;;5096879;28;20027;-78
2022/12/04 03:01:18;;;;;;;54.40;17.50;;;;;;;;;;5096287;28;20028;-78
2022/12/04 03:03:51;;;;;;;66.28;22.38;;;;;;;;;;5081557;28;20411;-77
2022/12/04 03:06:16;;;;;;;74.88;22.88;;;;;;;;;;5096948;28;20077;-77
2022/12/04 03:08:47;;;;;;;78.20;21.50;;;;;;;;;;5096560;28;20395;-77
2022/12/04 03:11:12;;;;;;;63.85;19.17;;;;;;;;;;5096530;28;20015;-78
2022/12/04 03:13:41;;;;;;;51.67;16.73;;;;;;;;;;5114692;28;20350;-78
2022/12/04 03:16:13;;;;;;;80.20;25.92;;;;;;;;;;5114265;28;20126;-78
2022/12/04 03:18:41;;;;;;;64.07;19.25;;;;;;;;;;5096357;28;20074;-78
2022/12/04 03:21:13;;;;;;;83.03;23.88;;;;;;;;;;5079611;28;20544;-78
2022/12/04 03:23:53;;;;;;;74.03;24.17;;;;;;;;;;5079673;28;20059;-78
2022/12/04 03:26:23;;;;;;;69.40;20.75;;;;;;;;;;5079954;28;20369;-78
2022/12/04 03:28:55;;;;;;;81.90;24.35;;;;;;;;;;5114656;28;20041;-77
2022/12/04 03:31:53;;;;;;;69.78;21.65;;;;;;;;;;5095267;28;20039;-80
2022/12/04 03:34:27;;;;;;;80.43;24.90;;;;;;;;;;5096974;28;20396;-79
2022/12/04 03:36:58;;;;;;;81.90;25.27;;;;;;;;;;5079634;28;20026;-78
2022/12/04 03:40:06;;;;;;;81.63;24.65;;;;;;;;;;5096214;28;20457;-79
2022/12/04 03:42:38;;;;;;;79.53;24.40;;;;;;;;;;5096099;28;20032;-78
2022/12/04 03:45:14;;;;;;;102.65;32.42;;;;;;;;;;5079762;28;20031;-78
2022/12/04 03:47:44;;;;;;;72.72;21.83;;;;;;;;;;5114560;28;20445;-78
2022/12/04 03:50:16;;;;;;;70.53;23.87;;;;;;;;;;5079785;28;20076;-78
2022/12/04 03:52:47;;;;;;;62.10;20.67;;;;;;;;;;5095832;28;20680;-79
2022/12/04 03:55:22;;;;;;;52.35;18.27;;;;;;;;;;5095971;28;20027;-78
2022/12/04 03:57:47;;;;;;;57.72;17.50;;;;;;;;;;5114165;28;20028;-78
2022/12/04 04:00:15;;;;;;;76.38;24.42;;;;;;;;;;5078902;28;20464;-79
2022/12/04 04:02:48;;;;;;;61.33;19.35;;;;;;;;;;5096059;28;20031;-79
2022/12/04 04:05:13;;;;;;;62.30;21.02;;;;;;;;;;5096208;28;20019;-79
2022/12/04 04:07:49;;;;;;;54.50;16.70;;;;;;;;;;5095901;28;20361;-79
2022/12/04 04:10:17;;;;;;;58.65;17.23;;;;;;;;;;5097232;28;20038;-77
2022/12/04 04:24:14;;;;;;;48.75;15.70;;;;;;;;;;5113944;28;20038;-78
2022/12/04 04:26:42;;;;;;;49.47;16.80;;;;;;;;;;5081610;28;20432;-79
2022/12/04 04:29:08;;;;;;;41.50;15.23;;;;;;;;;;5095646;28;20080;-79
2022/12/04 04:31:38;;;;;;;36.45;13.15;;;;;;;;;;5114124;28;20523;-78
2022/12/04 04:34:28;;;;;;;44.50;14.45;;;;;;;;;;5095261;28;20024;-78
2022/12/04 04:37:00;;;;;;;35.05;12.57;;;;;;;;;;5118295;28;20512;-79
2022/12/04 04:39:39;;;;;;;44.22;14.82;;;;;;;;;;5117620;28;20052;-79
2022/12/04 04:42:27;;;;;;;27.60;8.82;;;;;;;;;;5117382;28;20473;-78
2022/12/04 04:45:14;;;;;;;42.10;12.88;;;;;;;;;;5083510;28;20027;-77
2022/12/04 04:47:41;;;;;;;39.38;12.20;;;;;;;;;;5117647;28;20028;-78
2022/12/04 04:50:08;;;;;;;47.55;14.77;;;;;;;;;;5108181;28;20178;-77
2022/12/04 04:52:35;;;;;;;31.42;11.50;;;;;;;;;;5112803;28;20047;-78
2022/12/04 04:55:01;;;;;;;34.83;12.73;;;;;;;;;;5093583;28;20053;-78
2022/12/04 04:57:32;;;;;;;43.35;14.32;;;;;;;;;;5109239;28;20016;-79
2022/12/04 04:59:58;;;;;;;52.10;17.40;;;;;;;;;;5109025;28;20032;-78
2022/12/04 05:02:25;;;;;;;36.38;12.18;;;;;;;;;;5125140;28;20039;-79
2022/12/04 05:04:51;;;;;;;47.00;15.75;;;;;;;;;;5117265;28;20453;-77
2022/12/04 05:07:17;;;;;;;43.53;13.30;;;;;;;;;;5117411;28;20023;-78
2022/12/04 05:09:42;;;;;;;43.80;14.25;;;;;;;;;;5082139;28;20384;-77
2022/12/04 05:12:08;;;;;;;34.42;10.82;;;;;;;;;;5116868;28;20063;-77
2022/12/04 05:14:33;;;;;;;49.47;16.23;;;;;;;;;;5098957;28;20437;-78
2022/12/04 05:17:00;;;;;;;44.58;14.55;;;;;;;;;;5099622;28;20038;-78
2022/12/04 05:22:09;;;;;;;32.72;11.25;;;;;;;;;;5116789;28;20034;-78
2022/12/04 05:24:35;;;;;;;40.35;13.90;;;;;;;;;;5117011;28;20031;-78
2022/12/04 05:27:00;;;;;;;44.85;13.32;;;;;;;;;;5098942;28;20047;-79
2022/12/04 05:29:26;;;;;;;42.55;13.98;;;;;;;;;;5116824;28;20023;-78
2022/12/04 05:31:51;;;;;;;42.72;15.23;;;;;;;;;;5116683;28;20131;-77
2022/12/04 05:34:17;;;;;;;42.15;15.43;;;;;;;;;;5116459;28;20035;-78
2022/12/04 05:36:42;;;;;;;38.15;12.70;;;;;;;;;;5116501;28;20023;-79
2022/12/04 05:39:07;;;;;;;23.92;9.05;;;;;;;;;;5116380;28;20042;-79
2022/12/04 05:41:33;;;;;;;32.97;12.38;;;;;;;;;;5116051;28;20451;-79
2022/12/04 05:43:58;;;;;;;26.10;9.50;;;;;;;;;;5116575;28;20481;-78
2022/12/04 05:46:24;;;;;;;39.53;13.80;;;;;;;;;;5115150;28;20464;-79
2022/12/04 05:48:49;;;;;;;41.85;16.17;;;;;;;;;;5115191;28;20024;-78
2022/12/04 05:51:15;;;;;;;33.90;13.18;;;;;;;;;;5116050;28;20075;-78
2022/12/04 05:53:40;;;;;;;43.00;14.38;;;;;;;;;;5116065;28;20365;-77
2022/12/04 05:56:06;;;;;;;37.85;14.18;;;;;;;;;;5115749;28;20019;-79
2022/12/04 05:58:35;;;;;;;33.83;13.15;;;;;;;;;;5115928;28;20524;-79
2022/12/04 06:01:10;;;;;;;32.13;11.63;;;;;;;;;;5097547;28;20028;-78
2022/12/04 06:03:35;;;;;;;27.88;11.15;;;;;;;;;;5115851;28;20028;-78
2022/12/04 06:06:01;;;;;;;36.15;14.77;;;;;;;;;;5115784;28;20046;-78
2022/12/04 06:08:26;;;;;;;42.33;17.08;;;;;;;;;;5115562;28;20067;-77
2022/12/04 06:10:51;;;;;;;43.78;15.73;;;;;;;;;;5115696;28;20023;-76
2022/12/04 06:13:17;;;;;;;44.53;16.67;;;;;;;;;;5115660;28;20031;-76
2022/12/04 06:15:42;;;;;;;37.72;12.40;;;;;;;;;;5115646;28;20023;-78
2022/12/04 06:18:08;;;;;;;42.40;15.93;;;;;;;;;;5115487;28;20024;-78
2022/12/04 06:20:33;;;;;;;44.15;15.45;;;;;;;;;;5115430;28;20038;-77
2022/12/04 06:22:59;;;;;;;44.22;15.00;;;;;;;;;;5115221;28;20118;-77
2022/12/04 06:25:24;;;;;;;38.40;14.50;;;;;;;;;;5115359;28;20035;-77
2022/12/04 06:27:50;;;;;;;40.05;15.23;;;;;;;;;;5115426;28;20032;-77
2022/12/04 06:30:15;;;;;;;41.05;16.00;;;;;;;;;;5115374;28;20027;-77
2022/12/04 06:32:41;;;;;;;35.28;13.80;;;;;;;;;;5115245;28;20063;-77
2022/12/04 06:35:07;;;;;;;47.78;16.42;;;;;;;;;;5115255;28;20027;-77
2022/12/04 06:37:32;;;;;;;53.15;17.88;;;;;;;;;;5115131;28;20066;-78
2022/12/04 06:39:58;;;;;;;39.67;14.60;;;;;;;;;;5096910;28;20062;-79
2022/12/04 06:42:23;;;;;;;44.65;14.73;;;;;;;;;;5115086;28;20027;-77
2022/12/04 06:44:49;;;;;;;40.30;14.68;;;;;;;;;;5080034;28;20024;-77
2022/12/04 06:47:14;;;;;;;42.17;13.90;;;;;;;;;;5115049;28;20034;-77
2022/12/04 06:49:40;;;;;;;27.63;10.85;;;;;;;;;;5112465;28;20031;-77
2022/12/04 06:52:05;;;;;;;37.65;13.48;;;;;;;;;;5094023;28;20480;-77
2022/12/04 06:54:31;;;;;;;45.17;16.42;;;;;;;;;;5076538;28;20024;-77
2022/12/04 06:56:56;;;;;;;32.58;12.00;;;;;;;;;;5094843;28;20472;-79
2022/12/04 06:59:22;;;;;;;29.92;11.45;;;;;;;;;;5094436;28;20027;-77
2022/12/04 07:01:48;;;;;;;30.15;12.45;;;;;;;;;;5094714;28;20126;-78
2022/12/04 07:04:13;;;;;;;28.05;11.88;;;;;;;;;;5094371;28;20125;-80
2022/12/04 07:06:39;;;;;;;36.25;14.18;;;;;;;;;;5075948;28;20059;-77
2022/12/04 07:09:09;;;;;;;41.35;13.13;;;;;;;;;;5094358;28;20081;-76
2022/12/04 07:11:34;;;;;;;40.17;14.98;;;;;;;;;;5094320;28;20034;-76
2022/12/04 07:14:00;;;;;;;28.00;11.20;;;;;;;;;;5076253;28;20032;-77
2022/12/04 07:16:26;;;;;;;24.58;9.98;;;;;;;;;;5094188;28;20028;-77
2022/12/04 07:18:55;;;;;;;20.30;8.70;;;;;;;;;;5094153;28;20020;-78
2022/12/04 07:21:27;;;;;;;36.72;12.88;;;;;;;;;;5093900;28;20043;-77
2022/12/04 07:23:55;;;;;;;31.73;13.23;;;;;;;;;;5076729;28;20350;-79
2022/12/04 07:26:21;;;;;;;30.00;12.23;;;;;;;;;;5059638;28;20027;-79
2022/12/04 07:28:46;;;;;;;28.65;11.85;;;;;;;;;;5093962;28;20012;-78
2022/12/04 07:31:14;;;;;;;33.95;13.95;;;;;;;;;;5093957;28;20027;-80
2022/12/04 07:33:40;;;;;;;38.60;14.40;;;;;;;;;;5076224;28;20028;-79
2022/12/04 07:36:07;;;;;;;35.47;14.20;;;;;;;;;;5093758;28;20342;-79
2022/12/04 07:38:33;;;;;;;35.17;12.35;;;;;;;;;;5094257;28;20017;-79
2022/12/04 07:40:59;;;;;;;22.77;9.27;;;;;;;;;;5076086;28;20032;-77
2022/12/04 07:43:25;;;;;;;30.52;12.38;;;;;;;;;;5093765;28;20028;-79
2022/12/04 07:45:50;;;;;;;33.88;12.68;;;;;;;;;;5092953;28;20020;-79
2022/12/04 07:48:16;;;;;;;31.85;12.38;;;;;;;;;;5058101;28;20120;-79
2022/12/04 07:50:41;;;;;;;30.48;12.25;;;;;;;;;;5092413;28;20121;-78
2022/12/04 07:53:06;;;;;;;30.85;12.05;;;;;;;;;;5092035;28;20024;-77
2022/12/04 07:55:32;;;;;;;31.63;12.02;;;;;;;;;;5093211;28;20136;-78
2022/12/04 07:57:57;;;;;;;26.52;11.32;;;;;;;;;;5092111;28;20114;-77
2022/12/04 08:00:23;;;;;;;29.38;10.73;;;;;;;;;;5091401;28;20185;-76
2022/12/04 08:02:49;;;;;;;31.83;12.55;;;;;;;;;;5090936;28;20381;-77
2022/12/04 08:05:14;;;;;;;34.17;14.20;;;;;;;;;;5055574;28;20024;-78
2022/12/04 08:07:40;;;;;;;33.08;12.20;;;;;;;;;;5072540;28;20341;-77
2022/12/04 08:10:06;;;;;;;31.73;11.43;;;;;;;;;;5092741;28;20027;-77
2022/12/04 08:12:32;;;;;;;32.75;13.32;;;;;;;;;;5094725;28;20027;-77
2022/12/04 08:14:57;;;;;;;33.08;14.85;;;;;;;;;;5096635;28;20028;-79
2022/12/04 08:17:23;;;;;;;28.27;11.30;;;;;;;;;;5077671;28;20491;-79
2022/12/04 08:19:48;;;;;;;28.50;11.95;;;;;;;;;;5075616;28;20024;-77
2022/12/04 08:22:14;;;;;;;25.10;11.13;;;;;;;;;;5094876;28;20066;-79
2022/12/04 08:24:39;;;;;;;25.13;10.73;;;;;;;;;;5076415;28;20028;-79
2022/12/04 08:27:04;;;;;;;21.73;8.27;;;;;;;;;;5076425;28;20038;-78
2022/12/04 08:29:30;;;;;;;27.08;10.25;;;;;;;;;;5095972;28;20070;-77
2022/12/04 08:31:55;;;;;;;24.85;11.07;;;;;;;;;;5077367;28;20036;-79
2022/12/04 08:34:21;;;;;;;26.70;11.15;;;;;;;;;;5096425;28;20030;-78
2022/12/04 08:36:46;;;;;;;30.73;11.75;;;;;;;;;;5062372;28;20134;-79
2022/12/04 08:39:12;;;;;;;32.50;12.05;;;;;;;;;;5079145;28;20024;-79
2022/12/04 08:41:37;;;;;;;26.17;10.10;;;;;;;;;;5096938;28;20028;-78
2022/12/04 08:44:03;;;;;;;26.88;10.90;;;;;;;;;;5078961;28;20472;-79
2022/12/04 08:46:28;;;;;;;30.98;12.40;;;;;;;;;;5062484;28;20028;-78
2022/12/04 08:48:54;;;;;;;29.48;12.13;;;;;;;;;;5078638;28;20116;-78
2022/12/04 08:51:21;;;;;;;30.98;12.75;;;;;;;;;;5078778;28;20059;-78
2022/12/04 08:53:47;;;;;;;33.70;12.98;;;;;;;;;;5062178;28;20065;-78
2022/12/04 08:56:12;;;;;;;34.72;13.05;;;;;;;;;;5078722;28;20108;-79
2022/12/04 08:58:38;;;;;;;27.92;10.35;;;;;;;;;;5062103;28;20107;-77
2022/12/04 09:01:05;;;;;;;21.52;9.40;;;;;;;;;;5096569;28;20039;-79
2022/12/04 09:03:30;;;;;;;29.27;12.25;;;;;;;;;;5061775;28;20038;-78
2022/12/04 09:05:59;;;;;;;30.35;12.57;;;;;;;;;;5096794;28;20381;-76
2022/12/04 09:08:25;;;;;;;25.90;11.73;;;;;;;;;;5095777;28;20059;-78
2022/12/04 09:10:50;;;;;;;32.17;13.52;;;;;;;;;;5096429;28;20062;-77
2022/12/04 09:13:15;;;;;;;36.28;13.98;;;;;;;;;;5096533;28;20032;-77
2022/12/04 09:15:41;;;;;;;34.53;13.52;;;;;;;;;;5096429;28;20047;-77
2022/12/04 09:18:07;;;;;;;29.30;12.57;;;;;;;;;;5096263;28;20020;-77
2022/12/04 09:20:32;;;;;;;32.20;13.93;;;;;;;;;;5096118;28;20097;-78
2022/12/04 09:22:58;;;;;;;40.65;15.27;;;;;;;;;;5078342;28;20027;-77
2022/12/04 09:25:23;;;;;;;34.78;14.55;;;;;;;;;;5078202;28;20020;-78
2022/12/04 09:27:48;;;;;;;31.02;14.32;;;;;;;;;;5096584;28;20096;-77
2022/12/04 09:30:14;;;;;;;33.50;14.15;;;;;;;;;;5096346;28;20080;-77
2022/12/04 09:32:39;;;;;;;38.45;14.27;;;;;;;;;;5096332;28;20453;-78
2022/12/04 09:35:05;;;;;;;32.15;13.63;;;;;;;;;;5077884;28;20024;-77
2022/12/04 09:37:31;;;;;;;36.08;15.88;;;;;;;;;;5061296;28;20047;-77
2022/12/04 09:39:57;;;;;;;37.50;15.82;;;;;;;;;;5061188;28;20028;-78
2022/12/04 09:42:52;;;;;;;38.22;14.27;;;;;;;;;;5095875;28;20027;-77
2022/12/04 09:45:19;;;;;;;38.13;15.48;;;;;;;;;;5074988;28;20036;-78
2022/12/04 09:47:49;;;;;;;35.28;15.18;;;;;;;;;;5077341;28;20020;-76
2022/12/04 09:50:22;;;;;;;37.95;15.75;;;;;;;;;;5077728;28;20451;-77
2022/12/04 09:52:57;;;;;;;30.85;14.25;;;;;;;;;;5077402;28;20071;-77
2022/12/04 09:55:35;;;;;;;35.20;15.45;;;;;;;;;;5095663;28;20032;-76
2022/12/04 09:58:02;;;;;;;34.25;15.18;;;;;;;;;;5060797;28;20043;-77
2022/12/04 10:00:28;;;;;;;36.45;16.77;;;;;;;;;;5060629;28;20032;-76
2022/12/04 10:03:05;;;;;;;42.38;16.38;;;;;;;;;;5077740;28;20036;-76
2022/12/04 10:05:46;;;;;;;39.72;17.83;;;;;;;;;;5078628;28;20024;-76
2022/12/04 10:08:19;;;;;;;38.67;17.52;;;;;;;;;;5061194;28;20556;-76
2022/12/04 10:11:12;;;;;;;37.63;16.13;;;;;;;;;;5076035;28;20039;-78
2022/12/04 10:14:15;;;;;;;33.78;15.48;;;;;;;;;;5095134;28;20032;-79
2022/12/04 10:16:55;;;;;;;39.50;17.23;;;;;;;;;;5077064;28;20036;-79
2022/12/04 10:19:30;;;;;;;;;;;;;;;;;;5095689;28;20024;-79
2022/12/04 10:22:16;;;;;;;30.20;14.23;;;;;;;;;;5095565;28;19969;-79
2022/12/04 10:24:53;;;;;;;39.30;17.77;;;;;;;;;;5095313;28;20028;-78
2022/12/04 10:27:42;;;;;;;36.42;15.07;;;;;;;;;;5060553;28;20035;-79
2022/12/04 10:30:20;;;;;;;34.30;15.88;;;;;;;;;;5061097;28;20028;-79
2022/12/04 10:32:45;;;;;;;41.58;16.98;;;;;;;;;;5094622;28;20035;-78
2022/12/04 10:35:22;;;;;;;35.67;15.65;;;;;;;;;;5074226;28;20024;-79
2022/12/04 10:37:52;;;;;;;35.92;17.25;;;;;;;;;;5059370;28;20036;-77
2022/12/04 10:40:21;;;;;;;37.63;17.63;;;;;;;;;;5075557;28;20039;-80
2022/12/04 10:42:53;;;;;;;33.05;15.75;;;;;;;;;;5074969;28;20161;-77
2022/12/04 10:45:20;;;;;;;40.33;20.30;;;;;;;;;;5058668;28;20470;-78
2022/12/04 10:47:47;;;;;;;33.85;16.67;;;;;;;;;;5040541;28;20028;-77
2022/12/04 10:50:17;;;;;;;36.13;17.33;;;;;;;;;;5058128;28;20389;-78
2022/12/04 10:52:43;;;;;;;;;;;;;;;;;;5057700;28;20386;-77
2022/12/04 10:55:08;;;;;;;41.22;17.27;;;;;;;;;;5073138;28;19912;-76
2022/12/04 10:57:44;;;;;;;39.83;18.60;;;;;;;;;;5056562;28;20032;-77
2022/12/04 11:00:32;;;;;;;32.28;14.65;;;;;;;;;;5073112;28;20039;-77
2022/12/04 11:03:02;;;;;;;28.00;13.00;;;;;;;;;;5091438;28;20119;-79
2022/12/04 11:05:43;;;;;;;36.83;17.92;;;;;;;;;;5040509;28;20036;-77
2022/12/04 11:08:19;;;;;;;37.40;16.42;;;;;;;;;;5058595;28;20032;-78
2022/12/04 11:10:45;;;;;;;42.67;18.60;;;;;;;;;;5041960;28;20482;-77
2022/12/04 11:13:10;;;;;;;30.65;15.23;;;;;;;;;;5074794;28;20063;-77
2022/12/04 11:15:46;;;;;;;30.20;15.77;;;;;;;;;;5093828;28;20072;-78
2022/12/04 11:18:26;;;;;;;33.30;14.23;;;;;;;;;;5094567;28;20350;-77
2022/12/04 11:21:11;;;;;;;38.60;16.67;;;;;;;;;;5076221;28;20084;-78
2022/12/04 11:23:45;;;;;;;33.03;16.17;;;;;;;;;;5059849;28;20036;-78
2022/12/04 11:26:11;;;;;;;35.25;15.50;;;;;;;;;;5059825;28;20345;-78
2022/12/04 11:28:39;;;;;;;34.67;16.45;;;;;;;;;;5059232;28;20118;-77
2022/12/04 11:31:04;;;;;;;35.60;17.42;;;;;;;;;;5077329;28;20431;-77
2022/12/04 11:33:37;;;;;;;46.47;21.10;;;;;;;;;;5076346;28;20114;-78
2022/12/04 11:36:17;;;;;;;32.30;15.00;;;;;;;;;;5093889;28;20032;-78
2022/12/04 11:38:43;;;;;;;;;;;;;;;;;;5078407;28;20039;-77
2022/12/04 11:41:09;;;;;;;32.42;15.35;;;;;;;;;;5093852;28;19912;-78
2022/12/04 11:43:36;;;;;;;36.78;17.13;;;;;;;;;;5058852;28;20110;-77
2022/12/04 11:46:05;;;;;;;34.72;16.33;;;;;;;;;;5098636;28;20028;-78
2022/12/04 11:48:31;;;;;;;38.03;17.95;;;;;;;;;;5080117;28;20424;-78
2022/12/04 11:51:08;;;;;;;39.63;20.60;;;;;;;;;;5097963;28;20052;-78
2022/12/04 11:53:46;;;;;;;41.53;19.98;;;;;;;;;;5080209;28;20047;-78
2022/12/04 11:56:32;;;;;;;34.28;16.15;;;;;;;;;;5064326;28;20074;-78
2022/12/04 11:59:33;;;;;;;37.03;18.70;;;;;;;;;;5079794;28;20036;-76
2022/12/04 12:02:21;;;;;;;34.90;17.27;;;;;;;;;;5062369;28;20124;-77
2022/12/04 12:05:11;;;;;;;39.78;17.20;;;;;;;;;;5042443;28;20044;-77
2022/12/04 12:07:46;;;;;;;34.38;14.82;;;;;;;;;;5097757;28;20110;-78
2022/12/04 12:10:29;;;;;;;32.55;14.02;;;;;;;;;;5064247;28;20055;-77
2022/12/04 12:13:16;;;;;;;28.92;13.65;;;;;;;;;;5079640;28;20032;-78
2022/12/04 12:15:45;;;;;;;36.03;17.60;;;;;;;;;;5097460;28;20024;-78
2022/12/04 12:18:13;;;;;;;34.15;14.80;;;;;;;;;;5097567;28;20081;-78
2022/12/04 12:21:03;;;;;;;25.55;13.73;;;;;;;;;;5078049;28;20396;-77
2022/12/04 12:23:34;;;;;;;28.80;14.10;;;;;;;;;;5064270;28;20383;-78
2022/12/04 12:26:11;;;;;;;27.02;13.20;;;;;;;;;;5095867;28;20273;-77
2022/12/04 12:28:56;;;;;;;28.02;13.05;;;;;;;;;;5062818;28;20036;-77
2022/12/04 12:31:37;;;;;;;30.88;15.88;;;;;;;;;;5063935;28;20334;-78
2022/12/04 12:34:02;;;;;;;;;;;;;;;;;;5097721;28;20411;-78
2022/12/04 12:36:30;;;;;;;25.88;11.82;;;;;;;;;;5097100;28;19912;-78
2022/12/04 12:38:57;;;;;;;34.08;14.13;;;;;;;;;;5077893;28;20461;-78
2022/12/04 12:41:35;;;;;;;27.95;13.63;;;;;;;;;;5077416;28;20028;-78
2022/12/04 12:44:10;;;;;;;27.05;13.00;;;;;;;;;;5044603;28;20519;-78
2022/12/04 12:46:58;;;;;;;28.33;15.52;;;;;;;;;;5095361;28;20077;-78
2022/12/04 12:49:40;;;;;;;28.40;14.75;;;;;;;;;;5095461;28;20028;-78
2022/12/04 12:52:34;;;;;;;27.08;13.27;;;;;;;;;;5078102;28;20473;-78
2022/12/04 12:55:25;;;;;;;23.80;12.57;;;;;;;;;;5078877;28;20035;-77
2022/12/04 12:58:08;;;;;;;23.80;11.70;;;;;;;;;;5097386;28;20020;-78
2022/12/04 13:00:38;;;;;;;24.05;12.52;;;;;;;;;;5096688;28;20055;-78
2022/12/04 13:03:06;;;;;;;26.75;14.40;;;;;;;;;;5062262;28;20063;-78
2022/12/04 13:05:46;;;;;;;19.45;9.60;;;;;;;;;;5061629;28;20454;-78
2022/12/04 13:08:24;;;;;;;26.45;12.02;;;;;;;;;;5061940;28;20453;-78
2022/12/04 13:11:16;;;;;;;26.75;14.57;;;;;;;;;;5078216;28;20119;-78
2022/12/04 13:13:45;;;;;;;29.45;14.00;;;;;;;;;;5063580;28;20031;-78
2022/12/04 13:16:18;;;;;;;24.52;13.65;;;;;;;;;;5061878;28;20020;-77
2022/12/04 13:19:08;;;;;;;28.67;15.50;;;;;;;;;;5078251;28;20043;-78
2022/12/04 13:22:09;;;;;;;28.52;13.10;;;;;;;;;;5063364;28;20024;-78
2022/12/04 13:24:58;;;;;;;26.58;13.52;;;;;;;;;;5057318;28;20051;-78
2022/12/04 13:27:33;;;;;;;75.80;27.48;;;;;;;;;;5078850;28;20024;-78
2022/12/04 13:29:58;;;;;;;54.67;21.10;;;;;;;;;;5095519;28;20128;-78
2022/12/04 13:32:48;;;;;;;30.05;13.65;;;;;;;;;;5096497;28;20062;-78
2022/12/04 13:35:46;;;;;;;25.35;13.18;;;;;;;;;;5096531;28;20502;-78
2022/12/04 13:38:35;;;;;;;35.55;15.48;;;;;;;;;;5055096;28;20644;-78
2022/12/04 13:41:03;;;;;;;40.00;21.48;;;;;;;;;;5095887;28;20031;-79
2022/12/04 13:43:40;;;;;;;28.00;14.43;;;;;;;;;;5061503;28;20024;-77
2022/12/04 13:46:30;;;;;;;32.30;16.58;;;;;;;;;;5095934;28;20058;-77
2022/12/04 13:49:14;;;;;;;38.78;18.25;;;;;;;;;;5096073;28;20038;-77
2022/12/04 13:51:41;;;;;;;25.98;14.95;;;;;;;;;;5095720;28;20056;-78
2022/12/04 13:54:09;;;;;;;41.38;17.15;;;;;;;;;;5077296;28;20072;-78
2022/12/04 13:56:34;;;;;;;27.33;14.80;;;;;;;;;;5096044;28;20035;-77
2022/12/04 13:59:02;;;;;;;32.05;18.27;;;;;;;;;;5077506;28;20028;-77
2022/12/04 14:01:39;;;;;;;23.48;12.88;;;;;;;;;;5076391;28;20047;-77
2022/12/04 14:04:05;;;;;;;31.83;16.55;;;;;;;;;;5060876;28;20051;-78
2022/12/04 14:06:51;;;;;;;28.60;14.60;;;;;;;;;;5060318;28;20024;-77
2022/12/04 14:09:40;;;;;;;28.90;16.02;;;;;;;;;;5094553;28;20089;-78
2022/12/04 14:12:07;;;;;;;29.25;15.15;;;;;;;;;;5064776;28;20040;-78
2022/12/04 14:14:52;;;;;;;33.15;18.10;;;;;;;;;;5077451;28;20016;-78
2022/12/04 14:17:26;;;;;;;29.95;16.88;;;;;;;;;;5063053;28;20381;-78
2022/12/04 14:19:59;;;;;;;31.13;16.38;;;;;;;;;;5061800;28;20028;-78
2022/12/04 14:22:34;;;;;;;38.30;19.77;;;;;;;;;;5061601;28;20361;-77
2022/12/04 14:25:13;;;;;;;43.00;21.35;;;;;;;;;;5076959;28;20051;-78
2022/12/04 14:27:41;;;;;;;36.30;18.40;;;;;;;;;;5095239;28;20024;-78
2022/12/04 14:30:30;;;;;;;32.50;18.73;;;;;;;;;;5094198;28;20031;-77
2022/12/04 14:33:00;;;;;;;28.30;15.73;;;;;;;;;;5095314;28;20103;-78
2022/12/04 14:35:26;;;;;;;34.10;15.45;;;;;;;;;;5061453;28;20047;-78
2022/12/04 14:37:57;;;;;;;42.65;20.50;;;;;;;;;;5061102;28;20073;-78
2022/12/04 14:40:27;;;;;;;45.78;21.55;;;;;;;;;;5060256;28;20407;-77
2022/12/04 14:42:53;;;;;;;48.80;21.02;;;;;;;;;;5060610;28;20020;-77
2022/12/04 14:45:56;;;;;;;41.92;21.10;;;;;;;;;;5060151;28;20016;-77
2022/12/04 14:48:36;;;;;;;45.50;23.38;;;;;;;;;;5046607;28;20381;-77
2022/12/04 14:51:26;;;;;;;41.58;17.05;;;;;;;;;;5076176;28;20032;-77
2022/12/04 14:54:02;;;;;;;36.88;17.63;;;;;;;;;;5077468;28;20032;-79
2022/12/04 14:57:03;;;;;;;29.27;16.25;;;;;;;;;;5077461;28;20378;-78